CNK1 CYVR-CYYC
Flight info
| Callsign | CNK1 |
|---|---|
| Flight time | N/A |
| Altitude | 39000 |
| Route | DAPED DCT PETLI DCT MENBO Q983 NORET IGVEP7 |
| Aircraft | GLF6/M-SFGHIRWXY/S |
Departure
| Time | 2026-05-03 21:43 |
|---|---|
| Airport | Vancouver International Airport (CYVR) |
Arrival
| Time | N/A |
|---|---|
| Airport | Calgary International Airport (CYYC) |
| Time | Latitude | Longitude | Altitude | Speed | Heading |
|---|---|---|---|---|---|
| 2026-05-03 21:23 | 49.18366 | -123.17545 | 17 ft | 0 kts | 4° |
| 2026-05-03 21:36 | 49.18377 | -123.17545 | 17 ft | 3 kts | 3° |
| 2026-05-03 21:36 | 49.18402 | -123.17540 | 17 ft | 3 kts | 18° |
| 2026-05-03 21:36 | 49.18424 | -123.17526 | 17 ft | 5 kts | 32° |
| 2026-05-03 21:36 | 49.18434 | -123.17445 | 17 ft | 9 kts | 97° |
| 2026-05-03 21:37 | 49.18421 | -123.17320 | 17 ft | 15 kts | 99° |
| 2026-05-03 21:37 | 49.18397 | -123.17120 | 17 ft | 19 kts | 101° |
| 2026-05-03 21:37 | 49.18373 | -123.16914 | 16 ft | 19 kts | 100° |
| 2026-05-03 21:37 | 49.18349 | -123.16710 | 17 ft | 19 kts | 100° |
| 2026-05-03 21:38 | 49.18325 | -123.16510 | 17 ft | 19 kts | 100° |
| 2026-05-03 21:38 | 49.18303 | -123.16327 | 16 ft | 14 kts | 100° |
| 2026-05-03 21:38 | 49.18332 | -123.16260 | 16 ft | 5 kts | 7° |
| 2026-05-03 21:38 | 49.18348 | -123.16258 | 16 ft | 0 kts | 6° |
| 2026-05-03 21:41 | 49.18426 | -123.16241 | 16 ft | 15 kts | 10° |
| 2026-05-03 21:41 | 49.18489 | -123.16251 | 16 ft | 7 kts | 303° |
| 2026-05-03 21:41 | 49.18498 | -123.16296 | 16 ft | 0 kts | 281° |
| 2026-05-03 21:43 | 49.18505 | -123.16350 | 16 ft | 13 kts | 280° |
| 2026-05-03 21:43 | 49.18552 | -123.16760 | 16 ft | 73 kts | 281° |
| 2026-05-03 21:43 | 49.18675 | -123.17894 | 153 ft | 130 kts | 281° |
| 2026-05-03 21:43 | 49.18792 | -123.19090 | 1051 ft | 116 kts | 279° |
| 2026-05-03 21:44 | 49.18896 | -123.20431 | 1185 ft | 157 kts | 279° |
| 2026-05-03 21:44 | 49.19044 | -123.22237 | 1985 ft | 184 kts | 279° |
| 2026-05-03 21:44 | 49.19217 | -123.24274 | 2942 ft | 212 kts | 279° |
| 2026-05-03 21:44 | 49.19419 | -123.26623 | 3741 ft | 250 kts | 279° |
| 2026-05-03 21:45 | 49.19674 | -123.29435 | 4727 ft | 279 kts | 279° |
| 2026-05-03 21:45 | 49.19896 | -123.32251 | 6413 ft | 277 kts | 272° |
| 2026-05-03 21:45 | 49.19374 | -123.35062 | 7675 ft | 290 kts | 237° |
| 2026-05-03 21:45 | 49.17876 | -123.37011 | 9088 ft | 295 kts | 204° |
| 2026-05-03 21:46 | 49.15902 | -123.37695 | 10442 ft | 301 kts | 186° |
| 2026-05-03 21:46 | 49.13828 | -123.37823 | 11639 ft | 310 kts | 171° |
| 2026-05-03 21:46 | 49.11692 | -123.36605 | 11842 ft | 356 kts | 144° |
| 2026-05-03 21:46 | 49.10100 | -123.33703 | 12842 ft | 366 kts | 114° |
| 2026-05-03 21:47 | 49.09494 | -123.30039 | 14297 ft | 365 kts | 96° |
| 2026-05-03 21:47 | 49.09138 | -123.26154 | 15522 ft | 375 kts | 96° |
| 2026-05-03 21:47 | 49.08769 | -123.22109 | 15948 ft | 403 kts | 96° |
| 2026-05-03 21:47 | 49.08382 | -123.17745 | 15961 ft | 423 kts | 96° |
| 2026-05-03 21:48 | 49.07994 | -123.13324 | 15939 ft | 419 kts | 96° |
| 2026-05-03 21:48 | 49.07605 | -123.08961 | 15940 ft | 415 kts | 96° |
| 2026-05-03 21:48 | 49.07222 | -123.04619 | 15949 ft | 414 kts | 96° |
| 2026-05-03 21:48 | 49.06838 | -123.00274 | 15950 ft | 415 kts | 96° |
| 2026-05-03 21:49 | 49.06461 | -122.95931 | 15957 ft | 415 kts | 96° |
| 2026-05-03 21:49 | 49.06081 | -122.91586 | 15915 ft | 415 kts | 96° |
| 2026-05-03 21:49 | 49.05700 | -122.87325 | 17618 ft | 401 kts | 96° |
| 2026-05-03 21:49 | 49.05335 | -122.83354 | 19553 ft | 389 kts | 95° |
| 2026-05-03 21:50 | 49.04939 | -122.79191 | 20511 ft | 407 kts | 96° |
| 2026-05-03 21:50 | 49.04538 | -122.74960 | 21918 ft | 410 kts | 96° |
| 2026-05-03 21:50 | 49.04123 | -122.70673 | 23155 ft | 416 kts | 96° |
| 2026-05-03 21:50 | 49.03697 | -122.66307 | 24344 ft | 424 kts | 96° |
| 2026-05-03 21:51 | 49.03259 | -122.61884 | 25537 ft | 430 kts | 95° |
| 2026-05-03 21:51 | 49.02803 | -122.57385 | 26675 ft | 435 kts | 95° |